createdAt,value
2022-09-01T00:01:03.246Z,102010.19
2022-09-01T00:02:08.597Z,102017.41
2022-09-01T00:03:12.565Z,102011.22
2022-09-01T00:04:17.360Z,102005.84
2022-09-01T00:05:20.773Z,102009.53
2022-09-01T00:06:24.919Z,102010.38
2022-09-01T00:07:30.197Z,102017.78
2022-09-01T00:08:32.647Z,102017.59
2022-09-01T00:09:36.845Z,102003.53
2022-09-01T00:10:39.572Z,102014.25
2022-09-01T00:11:47.876Z,102004.34
2022-09-01T00:12:52.855Z,102009.94
2022-09-01T00:13:57.199Z,102011.78
2022-09-01T00:14:59.823Z,102010.97
2022-09-01T00:16:04.359Z,102010.97
2022-09-01T00:17:09.838Z,102010.13
2022-09-01T00:18:13.660Z,102015.50
2022-09-01T00:19:15.964Z,102015.50
2022-09-01T00:20:20.742Z,102002.44
2022-09-01T00:21:26.167Z,102011.97
2022-09-01T00:22:29.817Z,102004.94
2022-09-01T00:23:32.016Z,102013.00
2022-09-01T00:24:35.297Z,101999.97
2022-09-01T00:25:37.519Z,102005.34
2022-09-01T00:26:41.259Z,102004.69
2022-09-01T00:27:44.941Z,102009.88
2022-09-01T00:28:48.305Z,102011.72
2022-09-01T00:29:50.473Z,102001.34
2022-09-01T00:30:54.212Z,102009.41
2022-09-01T00:31:57.372Z,102009.41
2022-09-01T00:33:00.529Z,102003.38
2022-09-01T00:34:03.606Z,101998.59
2022-09-01T00:35:08.804Z,102008.09
2022-09-01T00:36:10.996Z,102008.09
2022-09-01T00:37:14.146Z,102006.47
2022-09-01T00:38:16.667Z,102002.31
2022-09-01T00:39:20.034Z,102002.47
2022-09-01T00:40:22.444Z,101996.50
2022-09-01T00:41:28.756Z,101997.50
2022-09-01T00:42:31.127Z,101997.50
2022-09-01T00:43:45.796Z,101999.53
2022-09-01T00:44:48.256Z,102001.59
2022-09-01T00:45:52.455Z,101993.72
2022-09-01T00:46:56.926Z,102008.16
2022-09-01T00:48:00.254Z,102000.28
2022-09-01T00:49:06.089Z,102002.13
2022-09-01T00:50:11.527Z,101999.81
2022-09-01T00:51:14.079Z,101993.59
2022-09-01T00:52:22.127Z,102002.69
2022-09-01T00:53:24.889Z,101994.81
2022-09-01T00:54:32.402Z,101997.69
2022-09-01T00:55:37.147Z,101998.91
2022-09-01T00:56:42.184Z,102000.13
2022-09-01T00:57:50.158Z,101992.59
2022-09-01T00:58:54.123Z,101995.13
2022-09-01T01:00:01.976Z,102002.53
2022-09-01T01:01:05.413Z,101993.19
2022-09-01T01:02:08.652Z,101993.84
2022-09-01T01:03:11.945Z,101989.22
2022-09-01T01:04:16.012Z,101998.75
2022-09-01T01:05:18.656Z,101994.59
2022-09-01T01:06:26.923Z,101995.59
2022-09-01T01:07:38.871Z,101997.81
2022-09-01T01:08:58.938Z,101995.34
2022-09-01T01:10:02.380Z,101981.00
2022-09-01T01:11:07.716Z,101994.88
2022-09-01T01:12:18.546Z,101997.75
2022-09-01T01:13:21.130Z,101991.91
2022-09-01T01:14:28.947Z,101999.16
2022-09-01T01:15:31.135Z,101995.81
2022-09-01T01:16:35.078Z,101992.28
2022-09-01T01:17:37.755Z,101989.81
2022-09-01T01:18:41.030Z,101990.19
2022-09-01T01:20:04.220Z,101988.50
2022-09-01T01:21:31.744Z,101991.38
2022-09-01T01:23:00.184Z,101983.88
2022-09-01T01:24:10.724Z,101991.94
2022-09-01T01:25:14.504Z,101992.97
2022-09-01T01:26:17.809Z,101995.00
2022-09-01T01:27:21.836Z,101989.81
2022-09-01T01:28:32.111Z,101992.03
2022-09-01T01:29:38.777Z,101992.03
2022-09-01T01:30:44.986Z,101995.72
2022-09-01T01:31:49.677Z,101993.22
2022-09-01T01:32:52.857Z,101995.25
2022-09-01T01:33:56.871Z,101994.44
2022-09-01T01:35:03.696Z,101988.44
2022-09-01T01:36:07.979Z,101985.09
2022-09-01T01:37:10.910Z,101996.84
2022-09-01T01:38:15.537Z,101989.00
2022-09-01T01:39:22.750Z,101993.22
2022-09-01T01:40:29.227Z,102001.94
2022-09-01T01:41:35.626Z,102001.28
2022-09-01T01:42:38.741Z,101999.97
2022-09-01T01:43:42.973Z,102006.84
2022-09-01T01:44:46.487Z,102000.81
2022-09-01T01:45:52.170Z,102002.66
2022-09-01T01:46:57.394Z,102002.84
2022-09-01T01:48:08.702Z,102003.03
2022-09-01T01:49:13.344Z,102002.38
2022-09-01T01:50:17.713Z,101997.19
2022-09-01T01:51:25.063Z,101994.69
2022-09-01T01:52:28.916Z,102000.25
2022-09-01T01:53:33.622Z,101991.38
2022-09-01T01:54:37.545Z,101984.06
2022-09-01T01:55:43.835Z,101997.28
2022-09-01T01:56:47.164Z,101994.41
2022-09-01T01:57:50.134Z,101997.47
2022-09-01T01:58:54.797Z,101996.81
2022-09-01T01:59:56.964Z,101993.13
2022-09-01T02:01:00.738Z,101998.50
2022-09-01T02:02:03.902Z,101995.16
2022-09-01T02:03:07.632Z,101994.31
2022-09-01T02:04:11.303Z,101997.19
2022-09-01T02:05:20.933Z,102003.56
2022-09-01T02:06:25.302Z,101992.19
2022-09-01T02:07:33.007Z,101994.03
2022-09-01T02:08:38.158Z,101995.88
2022-09-01T02:09:46.041Z,102003.28
2022-09-01T02:10:55.201Z,101997.28
2022-09-01T02:11:58.824Z,102004.47
2022-09-01T02:13:05.986Z,101997.63
2022-09-01T02:14:09.655Z,101998.44
2022-09-01T02:15:13.193Z,102004.84
2022-09-01T02:16:16.971Z,101997.34
2022-09-01T02:17:21.291Z,102008.69
2022-09-01T02:18:28.575Z,101996.31
2022-09-01T02:19:36.804Z,101996.31
2022-09-01T02:20:41.052Z,102001.03
2022-09-01T02:21:44.713Z,102000.03
2022-09-01T02:22:47.012Z,101998.34
2022-09-01T02:24:00.321Z,102001.03
2022-09-01T02:25:02.575Z,102001.03
2022-09-01T02:26:17.330Z,102003.72
2022-09-01T02:27:26.939Z,102001.03
2022-09-01T02:28:33.020Z,102000.38
2022-09-01T02:29:40.159Z,102001.41
2022-09-01T02:30:47.855Z,101996.22
2022-09-01T02:31:54.398Z,102001.75
2022-09-01T02:32:58.507Z,101999.09
2022-09-01T02:34:02.766Z,101993.25
2022-09-01T02:35:10.057Z,101991.41
2022-09-01T02:36:17.877Z,101993.44
2022-09-01T02:37:25.268Z,101989.91
2022-09-01T02:38:31.207Z,101991.13
2022-09-01T02:39:34.397Z,101994.44
2022-09-01T02:40:41.289Z,101989.41
2022-09-01T02:41:46.200Z,101991.13
2022-09-01T02:42:49.147Z,101990.44
2022-09-01T02:43:52.480Z,101990.44
2022-09-01T02:44:55.304Z,101984.41
2022-09-01T02:46:02.397Z,101987.09
2022-09-01T02:47:10.080Z,101986.25
2022-09-01T02:48:14.055Z,101988.13
2022-09-01T02:49:19.891Z,101982.28
2022-09-01T02:50:24.921Z,101982.09
2022-09-01T02:51:27.109Z,101978.75
2022-09-01T02:52:37.628Z,101979.41
2022-09-01T02:53:41.766Z,101985.78
2022-09-01T02:54:45.967Z,101982.28
2022-09-01T02:55:48.257Z,101984.13
2022-09-01T02:56:54.845Z,101983.28
2022-09-01T02:57:58.846Z,101989.47
2022-09-01T02:59:03.142Z,101980.78
2022-09-01T03:00:20.753Z,101986.16
2022-09-01T03:01:27.330Z,101996.84
2022-09-01T03:02:30.122Z,101991.50
2022-09-01T03:03:35.999Z,101989.00
2022-09-01T03:04:38.965Z,101982.81
2022-09-01T03:05:42.273Z,101990.84
2022-09-01T03:06:45.179Z,101989.00
2022-09-01T03:07:54.154Z,101985.47
2022-09-01T03:08:59.753Z,101987.34
2022-09-01T03:10:03.445Z,102001.75
2022-09-01T03:11:13.064Z,101981.53
2022-09-01T03:12:18.105Z,101991.22
2022-09-01T03:13:23.768Z,101989.56
2022-09-01T03:14:28.078Z,101986.88
2022-09-01T03:15:30.367Z,101988.88
2022-09-01T03:16:33.845Z,101994.25
2022-09-01T03:17:36.146Z,101990.72
2022-09-01T03:18:40.720Z,101995.28
2022-09-01T03:19:45.294Z,101985.56
2022-09-01T03:20:52.984Z,101990.25
2022-09-01T03:22:00.196Z,101989.25
2022-09-01T03:23:08.670Z,101989.44
2022-09-01T03:24:15.273Z,101989.63
2022-09-01T03:25:18.911Z,101993.97
2022-09-01T03:26:24.298Z,101988.78
2022-09-01T03:27:27.967Z,101986.28
2022-09-01T03:28:32.024Z,101986.28
2022-09-01T03:29:36.816Z,101989.97
2022-09-01T03:30:45.200Z,101989.16
2022-09-01T03:31:47.969Z,101992.00
2022-09-01T03:32:51.724Z,101985.81
2022-09-01T03:33:57.109Z,101991.34
2022-09-01T03:35:06.600Z,101982.66
2022-09-01T03:36:15.086Z,101986.97
2022-09-01T03:37:20.954Z,101949.03
2022-09-01T03:38:24.708Z,101987.16
2022-09-01T03:39:29.787Z,101974.97
2022-09-01T03:40:36.422Z,101982.00
2022-09-01T03:41:40.228Z,101986.50
2022-09-01T03:42:45.068Z,101980.50
2022-09-01T03:43:48.751Z,101982.34
2022-09-01T03:44:52.030Z,101984.00
2022-09-01T03:45:56.430Z,101980.50
2022-09-01T03:47:01.466Z,101979.66
2022-09-01T03:48:08.981Z,101975.34
2022-09-01T03:49:15.645Z,101974.50
2022-09-01T03:50:22.520Z,101980.84
2022-09-01T03:51:31.166Z,101980.03
2022-09-01T03:52:39.352Z,101976.50
2022-09-01T03:53:41.587Z,101972.00
2022-09-01T03:54:46.052Z,101980.03
2022-09-01T03:55:49.401Z,101967.34
2022-09-01T03:56:52.701Z,101973.00
2022-09-01T03:58:00.956Z,101987.22
2022-09-01T03:59:04.425Z,101970.31
2022-09-01T04:00:20.495Z,101973.00
2022-09-01T04:01:24.341Z,101963.66
2022-09-01T04:02:29.831Z,101959.97
2022-09-01T04:03:36.203Z,101978.34
2022-09-01T04:04:38.722Z,101966.66
2022-09-01T04:05:46.179Z,101975.50
2022-09-01T04:06:49.376Z,101973.66
2022-09-01T04:07:52.366Z,101972.81
2022-09-01T04:09:03.081Z,101971.16
2022-09-01T04:10:11.593Z,101972.00
2022-09-01T04:11:18.846Z,101967.47
2022-09-01T04:12:25.911Z,101982.72
2022-09-01T04:13:35.539Z,101977.53
2022-09-01T04:14:37.827Z,101975.66
2022-09-01T04:15:41.069Z,101979.38
2022-09-01T04:17:03.263Z,101972.69
2022-09-01T04:18:09.746Z,101976.03
2022-09-01T04:19:20.283Z,101972.50
2022-09-01T04:20:23.818Z,101974.38
2022-09-01T04:21:26.436Z,101972.06
2022-09-01T04:22:32.083Z,101978.91
2022-09-01T04:23:37.215Z,101973.06
2022-09-01T04:24:46.923Z,101974.09
2022-09-01T04:25:50.569Z,101982.59
2022-09-01T04:26:56.341Z,101978.22
2022-09-01T04:27:58.797Z,101979.25
2022-09-01T04:29:03.342Z,101975.75
2022-09-01T04:30:10.744Z,101980.25
2022-09-01T04:31:19.160Z,101976.94
2022-09-01T04:32:24.415Z,101976.94
2022-09-01T04:33:34.888Z,101984.97
2022-09-01T04:34:39.936Z,101982.47
2022-09-01T04:35:44.762Z,101976.28
2022-09-01T04:36:46.945Z,101980.78
2022-09-01T04:37:54.128Z,101981.81
2022-09-01T04:38:58.638Z,101975.78
2022-09-01T04:40:03.730Z,101980.13
2022-09-01T04:41:07.672Z,101977.44
2022-09-01T04:42:11.216Z,101977.44
2022-09-01T04:43:13.434Z,101974.13
2022-09-01T04:44:19.712Z,101972.28
2022-09-01T04:45:27.423Z,101978.66
2022-09-01T04:46:31.419Z,101974.13
2022-09-01T04:47:36.056Z,101973.66
2022-09-01T04:48:43.354Z,101974.28
2022-09-01T04:49:49.084Z,101980.50
2022-09-01T04:50:52.503Z,101978.84
2022-09-01T04:52:07.096Z,101978.00
2022-09-01T04:53:12.169Z,101979.66
2022-09-01T04:54:18.332Z,101979.50
2022-09-01T04:55:22.358Z,101980.50
2022-09-01T04:56:26.834Z,101984.84
2022-09-01T04:57:47.663Z,101983.00
2022-09-01T04:58:50.038Z,101986.50
2022-09-01T04:59:56.939Z,101983.00
2022-09-01T05:01:00.407Z,101985.31
2022-09-01T05:02:07.825Z,101979.94
2022-09-01T05:03:10.404Z,101983.47
2022-09-01T05:04:33.949Z,101985.16
2022-09-01T05:05:42.546Z,101997.50
2022-09-01T05:06:47.208Z,101982.13
2022-09-01T05:07:51.920Z,101987.47
2022-09-01T05:08:57.796Z,101984.59
2022-09-01T05:10:13.813Z,101985.44
2022-09-01T05:11:24.135Z,101987.94
2022-09-01T05:12:33.708Z,101993.31
2022-09-01T05:13:38.981Z,101987.78
2022-09-01T05:14:43.742Z,101984.06
2022-09-01T05:15:48.741Z,101988.25
2022-09-01T05:16:57.175Z,101988.06
2022-09-01T05:18:02.358Z,101988.88
2022-09-01T05:19:06.467Z,101988.72
2022-09-01T05:20:12.009Z,101988.56
2022-09-01T05:21:17.562Z,101987.72
2022-09-01T05:22:22.259Z,101987.34
2022-09-01T05:23:40.457Z,101990.69
2022-09-01T05:24:44.782Z,101981.63
2022-09-01T05:25:49.610Z,101991.34
2022-09-01T05:26:52.859Z,101992.00
2022-09-01T05:27:55.776Z,101991.81
2022-09-01T05:29:01.813Z,101992.44
2022-09-01T05:30:11.021Z,101994.13
2022-09-01T05:31:19.811Z,101992.94
2022-09-01T05:32:26.112Z,101999.78
2022-09-01T05:33:29.996Z,101995.09
2022-09-01T05:34:36.458Z,101997.59
2022-09-01T05:35:43.581Z,101994.91
2022-09-01T05:36:50.772Z,101997.03
2022-09-01T05:37:54.718Z,101996.84
2022-09-01T05:38:58.117Z,101991.50
2022-09-01T05:40:02.451Z,101994.47
2022-09-01T05:41:08.629Z,101992.44
2022-09-01T05:42:12.072Z,101992.94
2022-09-01T05:43:14.933Z,101992.59
2022-09-01T05:44:18.876Z,101992.22
2022-09-01T05:45:23.791Z,101999.75
2022-09-01T05:46:30.152Z,101997.69
2022-09-01T05:47:37.546Z,102002.72
2022-09-01T05:48:40.965Z,101995.13
2022-09-01T05:49:44.766Z,102003.63
2022-09-01T05:50:49.737Z,102003.44
2022-09-01T05:51:54.160Z,102007.44
2022-09-01T05:52:58.262Z,102006.25
2022-09-01T05:54:02.047Z,102002.19
2022-09-01T05:55:09.068Z,102007.16
2022-09-01T05:56:15.100Z,101997.56
2022-09-01T05:57:33.874Z,102006.09
2022-09-01T06:00:02.241Z,102003.97
2022-09-01T06:01:22.313Z,102007.75
2022-09-01T06:02:28.819Z,102000.00
2022-09-01T06:03:38.035Z,102004.81
2022-09-01T06:04:44.334Z,102004.03
2022-09-01T06:05:53.106Z,102004.50
2022-09-01T06:07:06.519Z,102004.13
2022-09-01T06:08:10.821Z,102001.56
2022-09-01T06:09:18.115Z,102004.69
2022-09-01T06:10:21.596Z,102010.31
2022-09-01T06:11:25.850Z,102001.91
2022-09-01T06:12:29.071Z,102004.88
2022-09-01T06:13:32.520Z,102009.88
2022-09-01T06:14:36.626Z,102003.91
2022-09-01T06:15:40.207Z,101999.19
2022-09-01T06:16:43.626Z,102001.50
2022-09-01T06:17:49.085Z,102002.81
2022-09-01T06:18:53.420Z,102002.41
2022-09-01T06:19:59.545Z,102003.72
2022-09-01T06:21:04.294Z,102000.47
2022-09-01T06:22:07.446Z,102001.78
2022-09-01T06:23:10.029Z,102001.41
2022-09-01T06:24:13.178Z,102007.03
2022-09-01T06:25:17.438Z,102004.81
2022-09-01T06:26:27.179Z,102005.88
2022-09-01T06:27:29.496Z,102008.81
2022-09-01T06:28:32.884Z,102011.78
2022-09-01T06:29:35.277Z,102014.72
2022-09-01T06:30:38.929Z,102016.84
2022-09-01T06:31:45.962Z,102013.38
2022-09-01T06:32:51.532Z,102015.50
2022-09-01T06:33:54.898Z,102015.75
2022-09-01T06:35:00.492Z,102013.31
2022-09-01T06:36:04.074Z,102017.94
2022-09-01T06:37:07.178Z,102019.00
2022-09-01T06:38:11.364Z,102019.25
2022-09-01T06:39:22.658Z,102015.78
2022-09-01T06:40:28.804Z,102010.66
2022-09-01T06:41:32.643Z,102014.44
2022-09-01T06:42:35.387Z,102013.84
2022-09-01T06:43:40.137Z,102021.13
2022-09-01T06:44:42.936Z,102015.97
2022-09-01T06:45:49.926Z,102019.97
2022-09-01T06:46:53.790Z,102014.81
2022-09-01T06:48:00.237Z,102016.91
2022-09-01T06:49:04.376Z,102015.34
2022-09-01T06:50:08.648Z,102021.78
2022-09-01T06:51:16.060Z,102019.34
2022-09-01T06:52:21.145Z,102014.00
2022-09-01T06:53:32.818Z,102022.31
2022-09-01T06:54:43.781Z,102020.66
2022-09-01T06:55:49.604Z,102018.19
2022-09-01T06:56:53.524Z,102016.56
2022-09-01T06:58:05.861Z,102017.66
2022-09-01T06:59:10.124Z,102014.34
2022-09-01T07:01:41.134Z,102017.50
2022-09-01T07:02:45.645Z,102024.97
2022-09-01T07:04:13.475Z,102017.53
2022-09-01T07:08:25.023Z,102019.47
2022-09-01T07:09:48.027Z,102011.59
2022-09-01T07:13:08.604Z,102014.97
2022-09-01T07:14:16.177Z,102015.84
2022-09-01T07:16:51.957Z,102013.56
2022-09-01T07:17:58.483Z,102022.28
2022-09-01T07:19:03.409Z,102022.50
2022-09-01T07:20:27.285Z,102023.53
2022-09-01T07:21:39.392Z,102024.34
2022-09-01T07:24:10.881Z,102026.03
2022-09-01T07:25:17.468Z,102028.72
2022-09-01T07:26:47.628Z,102036.81
2022-09-01T07:27:50.851Z,102029.75
2022-09-01T07:29:04.185Z,102033.47
2022-09-01T07:30:10.717Z,102032.84
2022-09-01T07:32:47.625Z,102032.00
2022-09-01T07:36:25.649Z,102030.13
2022-09-01T07:39:55.057Z,102029.44
2022-09-01T07:41:43.316Z,102014.56
2022-09-01T07:44:26.228Z,102030.59
2022-09-01T07:46:00.459Z,102035.13
2022-09-01T07:47:51.798Z,102036.16
2022-09-01T07:49:01.793Z,102034.44
2022-09-01T07:50:24.131Z,102034.41
2022-09-01T07:51:37.770Z,102035.41
2022-09-01T07:52:43.243Z,102029.78
2022-09-01T07:53:50.236Z,102038.47
2022-09-01T07:54:55.557Z,102030.53
2022-09-01T07:56:00.497Z,102037.22
2022-09-01T07:57:03.044Z,102039.03
2022-09-01T07:58:08.646Z,102040.03
2022-09-01T07:59:15.228Z,102037.75
2022-09-01T08:00:45.142Z,102034.75
2022-09-01T08:01:51.227Z,102044.09
2022-09-01T08:02:57.092Z,102046.97
2022-09-01T08:04:02.942Z,102047.16
2022-09-01T08:05:09.381Z,102040.22
2022-09-01T08:06:14.640Z,102048.50
2022-09-01T08:07:18.196Z,102045.34
2022-09-01T08:08:24.995Z,102045.75
2022-09-01T08:09:38.028Z,102052.16
2022-09-01T08:10:43.045Z,102041.72
2022-09-01T08:12:02.933Z,102041.28
2022-09-01T08:13:15.375Z,102041.22
2022-09-01T08:14:19.122Z,102044.09
2022-09-01T08:16:52.928Z,102041.69
2022-09-01T08:17:55.719Z,102045.63
2022-09-01T08:19:01.459Z,102042.25
2022-09-01T08:20:10.526Z,102047.00
2022-09-01T08:21:40.980Z,102044.44
2022-09-01T08:23:05.661Z,102047.53
2022-09-01T08:24:10.827Z,102039.56
2022-09-01T08:25:15.702Z,102043.72
2022-09-01T08:26:22.583Z,102046.56
2022-09-01T08:27:24.723Z,102047.75
2022-09-01T08:28:28.143Z,102041.06
2022-09-01T08:29:32.244Z,102045.59
2022-09-01T08:30:37.021Z,102041.59
2022-09-01T08:31:39.632Z,102037.97
2022-09-01T08:32:43.230Z,102041.06
2022-09-01T08:33:47.611Z,102041.22
2022-09-01T08:34:51.341Z,102045.13
2022-09-01T08:35:55.413Z,102039.00
2022-09-01T08:36:58.818Z,102032.31
2022-09-01T08:38:01.149Z,102040.59
2022-09-01T08:39:06.222Z,102049.06
2022-09-01T08:40:13.065Z,102045.09
2022-09-01T08:41:20.043Z,102045.47
2022-09-01T08:42:45.364Z,102043.34
2022-09-01T08:43:58.969Z,102045.59
2022-09-01T08:45:10.734Z,102047.47
2022-09-01T08:46:20.012Z,102044.75
2022-09-01T08:47:43.711Z,102045.38
2022-09-01T08:50:36.284Z,102046.38
2022-09-01T08:52:07.741Z,102049.66
2022-09-01T08:53:22.541Z,102045.44
2022-09-01T08:54:38.194Z,102048.28
2022-09-01T08:55:45.105Z,102051.13
2022-09-01T08:56:53.009Z,102041.50
2022-09-01T08:58:02.142Z,102042.66
2022-09-01T08:59:29.099Z,102044.47
2022-09-01T09:00:57.930Z,102044.38
2022-09-01T09:02:12.871Z,102043.66
2022-09-01T09:03:27.181Z,102044.25
2022-09-01T09:04:49.228Z,102042.28
2022-09-01T09:06:04.650Z,102044.03
2022-09-01T09:07:14.179Z,102039.81
2022-09-01T09:08:43.875Z,102046.16
2022-09-01T09:10:00.485Z,102043.81
2022-09-01T09:11:06.758Z,102046.66
2022-09-01T09:12:31.191Z,102045.97
2022-09-01T09:14:01.506Z,102037.13
2022-09-01T09:15:16.305Z,102039.38
2022-09-01T09:16:26.327Z,102037.25
2022-09-01T09:17:34.525Z,102028.03
2022-09-01T09:18:59.807Z,102034.28
2022-09-01T09:20:03.753Z,102028.84
2022-09-01T09:21:12.175Z,102031.34
2022-09-01T09:22:17.360Z,102033.56
2022-09-01T09:23:29.460Z,102031.69
2022-09-01T09:24:48.382Z,102030.84
2022-09-01T09:25:52.130Z,102020.81
2022-09-01T09:26:57.202Z,102030.03
2022-09-01T09:28:00.819Z,102028.72
2022-09-01T09:29:03.316Z,102023.66
2022-09-01T09:30:11.836Z,102031.09
2022-09-01T09:31:32.461Z,102031.19
2022-09-01T09:34:19.119Z,102030.03
2022-09-01T09:35:29.372Z,102028.69
2022-09-01T09:36:35.876Z,102033.69
2022-09-01T09:37:39.164Z,102026.69
2022-09-01T09:38:41.277Z,102025.16
2022-09-01T09:39:44.490Z,102025.75
2022-09-01T09:42:24.042Z,102019.94
2022-09-01T09:43:29.672Z,102026.75
2022-09-01T09:44:33.007Z,102017.81
2022-09-01T09:45:41.662Z,102023.56
2022-09-01T09:46:47.713Z,102022.84
2022-09-01T09:47:50.951Z,102019.66
2022-09-01T09:49:12.387Z,102023.78
2022-09-01T09:50:20.868Z,102023.88
2022-09-01T09:51:23.964Z,102017.16
2022-09-01T09:52:27.017Z,102012.31
2022-09-01T09:53:32.627Z,102017.28
2022-09-01T09:54:38.359Z,102016.19
2022-09-01T09:55:56.123Z,102024.94
2022-09-01T09:57:13.421Z,102028.25
2022-09-01T09:58:15.725Z,102010.84
2022-09-01T09:59:56.034Z,102018.53
2022-09-01T10:01:03.735Z,102018.31
2022-09-01T10:02:28.367Z,102014.84
2022-09-01T10:03:42.531Z,102008.81
2022-09-01T10:04:44.744Z,102003.56
2022-09-01T10:05:51.702Z,102004.72
2022-09-01T10:06:54.378Z,102001.28
2022-09-01T10:07:58.420Z,102008.13
2022-09-01T10:09:02.116Z,102000.28
2022-09-01T10:10:25.768Z,102000.38
2022-09-01T10:11:35.538Z,102000.44
2022-09-01T10:12:40.571Z,101992.38
2022-09-01T10:13:42.706Z,102006.31
2022-09-01T10:14:53.651Z,102001.22
2022-09-01T10:15:58.244Z,101999.91
2022-09-01T10:17:07.085Z,102004.84
2022-09-01T10:18:20.602Z,101995.34
2022-09-01T10:19:31.121Z,101997.59
2022-09-01T10:20:38.659Z,101996.88
2022-09-01T10:21:44.877Z,101995.88
2022-09-01T10:22:50.654Z,101997.63
2022-09-01T10:23:53.685Z,102000.44
2022-09-01T10:24:57.814Z,101989.34
2022-09-01T10:26:09.611Z,101992.16
2022-09-01T10:27:20.144Z,101988.16
2022-09-01T10:28:24.720Z,101992.63
2022-09-01T10:29:35.162Z,101981.81
2022-09-01T10:30:48.111Z,101990.06
2022-09-01T10:32:03.492Z,101982.53
2022-09-01T10:33:20.961Z,101982.28
2022-09-01T10:34:25.868Z,101978.78
2022-09-01T10:35:32.387Z,101989.19
2022-09-01T10:36:37.374Z,101986.78
2022-09-01T10:37:42.173Z,101981.06
2022-09-01T10:38:52.774Z,101994.69
2022-09-01T10:40:21.012Z,101981.41
2022-09-01T10:42:00.311Z,101984.97
2022-09-01T10:43:37.855Z,101988.28
2022-09-01T10:44:58.087Z,101986.94
2022-09-01T10:46:05.991Z,101980.97
2022-09-01T10:47:26.974Z,101989.97
2022-09-01T10:48:36.602Z,101978.16
2022-09-01T10:50:07.723Z,101986.19
2022-09-01T10:51:51.375Z,101978.72
2022-09-01T10:53:00.782Z,101980.53
2022-09-01T10:54:05.825Z,101974.75
2022-09-01T10:55:08.862Z,101977.47
2022-09-01T10:56:28.108Z,101974.75
2022-09-01T10:57:43.601Z,101976.69
2022-09-01T11:02:28.109Z,101973.78
2022-09-01T11:03:56.240Z,101974.63
2022-09-01T11:05:18.436Z,101975.78
2022-09-01T11:08:24.579Z,101976.69
2022-09-01T11:09:29.273Z,101978.84
2022-09-01T11:10:47.668Z,101974.97
2022-09-01T11:12:30.637Z,101974.91
2022-09-01T11:13:46.407Z,101973.19
2022-09-01T11:14:56.986Z,101967.66
2022-09-01T11:17:59.660Z,101975.84
2022-09-01T11:19:32.028Z,101970.97
2022-09-01T11:20:39.166Z,101970.97
2022-09-01T11:21:43.374Z,101960.47
2022-09-01T11:23:00.172Z,101967.88
2022-09-01T11:24:37.803Z,101969.03
2022-09-01T11:25:44.804Z,101967.69
2022-09-01T11:26:50.020Z,101964.44
2022-09-01T11:28:04.073Z,101963.72
2022-09-01T11:29:07.210Z,101957.75
2022-09-01T11:30:16.089Z,101966.59
2022-09-01T11:31:26.998Z,101955.41
2022-09-01T11:32:35.578Z,101960.72
2022-09-01T11:33:53.447Z,101958.38
2022-09-01T11:34:59.867Z,101970.72
2022-09-01T11:36:05.705Z,101956.06
2022-09-01T11:37:16.244Z,101965.94
2022-09-01T11:38:18.858Z,101962.44
2022-09-01T11:39:44.205Z,101963.31
2022-09-01T11:40:55.851Z,101967.72
2022-09-01T11:42:04.677Z,101953.00
2022-09-01T11:43:22.161Z,101955.81
2022-09-01T11:44:36.796Z,101969.53
2022-09-01T11:45:51.063Z,101954.03
2022-09-01T11:47:00.399Z,101950.75
2022-09-01T11:48:10.056Z,101956.84
2022-09-01T11:49:30.538Z,101955.53
2022-09-01T11:50:35.799Z,101955.56
2022-09-01T11:51:45.996Z,101957.22
2022-09-01T11:53:00.163Z,101957.53
2022-09-01T11:57:56.936Z,101949.19
2022-09-01T11:59:00.381Z,101947.84
2022-09-01T12:00:09.132Z,101942.69
2022-09-01T12:01:20.389Z,101950.03
2022-09-01T12:02:27.006Z,101953.88
2022-09-01T12:03:30.501Z,101941.50
2022-09-01T12:04:38.039Z,101952.44
2022-09-01T12:05:40.485Z,101946.94
2022-09-01T12:06:54.652Z,101949.34
2022-09-01T12:07:58.906Z,101949.84
2022-09-01T12:09:04.874Z,101950.31
2022-09-01T12:10:18.691Z,101947.25
2022-09-01T12:11:25.860Z,101947.16
2022-09-01T12:12:32.258Z,101933.16
2022-09-01T12:13:36.052Z,101943.94
2022-09-01T12:15:02.110Z,101948.78
2022-09-01T12:16:20.949Z,101949.19
2022-09-01T12:17:25.861Z,101947.72
2022-09-01T12:18:30.825Z,101944.09
2022-09-01T12:19:38.620Z,101945.94
2022-09-01T12:20:41.403Z,101949.75
2022-09-01T12:21:56.965Z,101952.50
2022-09-01T12:23:02.323Z,101947.03
2022-09-01T12:24:16.073Z,101945.16
2022-09-01T12:25:22.729Z,101939.00
2022-09-01T12:26:28.451Z,101933.41
2022-09-01T12:27:30.796Z,101928.34
2022-09-01T12:28:35.727Z,101932.31
2022-09-01T12:29:38.226Z,101926.94
2022-09-01T12:30:43.659Z,101936.97
2022-09-01T12:31:50.478Z,101924.25
2022-09-01T12:34:36.857Z,101932.44
2022-09-01T12:35:40.052Z,101940.72
2022-09-01T12:36:42.771Z,101931.19
2022-09-01T12:37:46.433Z,101926.59
2022-09-01T12:38:49.010Z,101924.50
2022-09-01T12:39:54.587Z,101925.88
2022-09-01T12:40:57.801Z,101920.69
2022-09-01T12:42:08.267Z,101936.59
2022-09-01T12:43:10.487Z,101916.88
2022-09-01T12:44:30.838Z,101924.31
2022-09-01T12:45:40.024Z,101921.56
2022-09-01T12:46:46.443Z,101913.09
2022-09-01T12:47:50.871Z,101923.47
2022-09-01T12:48:55.709Z,101929.78
2022-09-01T12:49:58.904Z,101931.69
2022-09-01T12:51:04.147Z,101919.63
2022-09-01T12:52:14.673Z,101929.78
2022-09-01T12:53:37.199Z,101921.84
2022-09-01T12:54:40.044Z,101926.72
2022-09-01T12:56:00.847Z,101925.59
2022-09-01T12:57:04.127Z,101919.81
2022-09-01T12:58:09.310Z,101922.78
2022-09-01T12:59:15.804Z,101917.56
2022-09-01T13:00:23.459Z,101917.84
2022-09-01T13:01:33.609Z,101918.38
2022-09-01T13:02:38.540Z,101909.59
2022-09-01T13:03:41.916Z,101908.50
2022-09-01T13:04:45.943Z,101912.66
2022-09-01T13:05:53.604Z,101911.34
2022-09-01T13:07:02.499Z,101916.06
2022-09-01T13:08:08.665Z,101909.22
2022-09-01T13:09:10.871Z,101915.28
2022-09-01T13:10:14.731Z,101913.38
2022-09-01T13:11:21.928Z,101917.44
2022-09-01T13:12:26.510Z,101915.22
2022-09-01T13:13:29.015Z,101918.75
2022-09-01T13:14:32.367Z,101914.28
2022-09-01T13:15:37.478Z,101917.22
2022-09-01T13:16:40.152Z,101918.78
2022-09-01T13:17:43.645Z,101912.63
2022-09-01T13:20:12.689Z,101910.97
2022-09-01T13:21:16.854Z,101912.78
2022-09-01T13:22:20.742Z,101920.06
2022-09-01T13:23:23.465Z,101911.97
2022-09-01T13:24:30.406Z,101914.06
2022-09-01T13:25:35.696Z,101918.84
2022-09-01T13:26:38.002Z,101911.97
2022-09-01T13:27:44.326Z,101916.06
2022-09-01T13:28:47.565Z,101911.44
2022-09-01T13:29:50.357Z,101917.53
2022-09-01T13:32:24.048Z,101908.03
2022-09-01T13:33:28.521Z,101905.16
2022-09-01T13:34:30.811Z,101901.72
2022-09-01T13:35:36.068Z,101910.13